• Join FlightAware (Why Join?)
  • Login
  • US Flag 
12:34PM EDT


 

Airport Tracker/Info


-or-


 

Live Flight TrackerFlight Track Log ✈ TAM3432 ✈ 10-May-2013 ✈ SBBR / BSB - SBBE / BEL

Flight Track Log - Related Links

Times and Time Zones

All times are in EDT time to prevent confusion due to time zone crossing. See the TAM3432 flight status page for this flight to view local times or setup timezone preferences in your user account.

Time Position Orientation Groundspeed Altitude Reporting Facility
EDT Latitude Longitude Course Direction KTS MPH feet Rate Location/Type
11:18PM -15.8790 -47.8620 87° East 184 212 5,200  Level FlightAware
11:18PM -15.8890 -47.8440 120° Southeast 228 262 5,400 1,860 Climbing FlightAware
11:19PM -15.9180 -47.7990 124° Southeast 236 272 7,400 1,920 Climbing FlightAware
11:19PM -15.9060 -47.7700 67° East 254 292 8,000 1,200 Climbing FlightAware
11:20PM -15.8920 -47.7630 26° Northeast 277 319 8,200 1,500 Climbing FlightAware
11:20PM -15.8810 -47.7620 North 289 333 8,500 2,520 Climbing FlightAware
11:20PM -15.8400 -47.7750 343° North 289 333 9,900 1,800 Climbing FlightAware
11:21PM -15.7780 -47.7990 340° North 334 384 10,800 900 Climbing FlightAware
11:22PM -15.7100 -47.8230 341° North 382 440 11,300 780 Climbing FlightAware
11:22PM -15.6420 -47.8460 342° North 414 476 11,900 1,620 Climbing FlightAware
11:23PM -15.5490 -47.8620 351° North 415 478 13,600 1,860 Climbing FlightAware
11:24PM -15.4680 -47.8690 355° North 427 491 14,700 1,560 Climbing FlightAware
11:24PM -15.3920 -47.8770 354° North 432 497 15,700 1,440 Climbing FlightAware
11:25PM -15.3060 -47.8850 355° North 437 503 16,800 1,380 Climbing FlightAware
11:26PM -15.2150 -47.8940 355° North 445 512 17,700 1,260 Climbing FlightAware
11:27PM -15.1320 -47.9020 355° North 452 520 18,500 600 Climbing FlightAware
11:27PM -15.0600 -47.9100 354° North 452 520 18,600 1,020 Climbing FlightAware
11:28PM -14.9520 -47.9190 355° North 466 536 20,000 1,260 Climbing FlightAware
11:29PM -14.8790 -47.9270 354° North 464 534 20,300 180 Climbing FlightAware
11:29PM -14.8060 -47.9350 354° North 464 534 20,300  Level FlightAware
11:30PM -14.7150 -47.9440 355° North 464 534 20,300  Level FlightAware
11:31PM -14.6430 -47.9520 354° North 464 534 20,300  Level FlightAware
11:31PM -14.5700 -47.9600 354° North 464 534 20,300  Level FlightAware
11:32PM -14.4970 -47.9680 354° North 464 534 20,300 840 Level FlightAware
11:35PM -14.2274 -47.9789 358° North  Level Estimated
11:36PM -14.1151 -47.9834 358° North  Level Estimated
11:37PM -14.0108 -47.9876 358° North  Level Estimated
11:38PM -13.9066 -47.9918 358° North  Level Estimated
11:39PM -13.8024 -47.9959 358° North  Level Estimated
11:40PM -13.6981 -48.0001 358° North  Level Estimated
11:41PM -13.5939 -48.0043 358° North  Level Estimated
11:42PM -13.4896 -48.0085 358° North  Level Estimated
11:43PM -13.3854 -48.0126 358° North  Level Estimated
11:44PM -13.2811 -48.0168 358° North  Level Estimated
11:45PM -13.1769 -48.0210 358° North  Level Estimated
11:46PM -13.0726 -48.0251 358° North  Level Estimated
11:47PM -12.9684 -48.0293 358° North  Level Estimated
11:48PM -12.8641 -48.0334 358° North  Level Estimated
11:49PM -12.7599 -48.0376 358° North  Level Estimated
11:49PM -12.1300 -48.1870 358° North 470 541 35,800  Level FlightAware
11:49PM -12.0440 -48.1950 355° North 470 541 36,000 120 Climbing FlightAware
11:50PM -11.9610 -48.2020 355° North 467 537 36,000  Level FlightAware
11:51PM -11.8640 -48.2110 355° North 464 534 36,000  Level FlightAware
11:52PM -11.7750 -48.2200 354° North 459 528 36,000  Level FlightAware
11:52PM -11.6800 -48.2290 355° North 459 528 36,000  Level FlightAware
11:53PM -11.5960 -48.2370 355° North 458 527 36,000  Level FlightAware
11:54PM -11.5170 -48.2440 355° North 455 524 36,000 -120 Level FlightAware
11:54PM -11.4210 -48.2530 355° North 456 525 35,900 -120 Descending FlightAware
11:55PM -11.3310 -48.2610 355° North 457 526 35,900 60 Level FlightAware
11:56PM -11.2350 -48.2700 355° North 457 526 36,000 60 Climbing FlightAware
11:56PM -11.1550 -48.2780 354° North 455 524 36,000  Level FlightAware
11:57PM -11.0740 -48.2850 355° North 454 522 36,000  Level FlightAware
11:58PM -10.9770 -48.2940 355° North 453 521 36,000  Level FlightAware
11:59PM -10.8940 -48.3020 355° North 453 521 36,000  Level FlightAware
11:59PM -10.8020 -48.3100 355° North 450 518 36,000  Level FlightAware
12:00AM -10.7090 -48.3190 355° North 452 520 36,000  Level FlightAware
12:01AM -10.6270 -48.3270 355° North 453 521 36,000  Level FlightAware
12:01AM -10.5540 -48.3330 355° North 454 522 36,000  Level FlightAware
12:02AM -10.4670 -48.3430 354° North 454 522 36,000  Level FlightAware
12:03AM -10.3780 -48.3520 354° North 454 522 36,000  Level FlightAware
12:03AM -10.3070 -48.3600 354° North 454 522 36,000  Level FlightAware
12:04AM -10.2360 -48.3670 354° North 454 522 36,000  Level FlightAware
12:05AM -10.1650 -48.3750 354° North 454 522 36,000  Level FlightAware
12:05AM -10.0940 -48.3820 354° North 454 522 36,000  Level FlightAware
12:06AM -10.0050 -48.3920 354° North 454 522 36,000  Level FlightAware
12:07AM -9.9340 -48.3990 354° North 454 522 36,000  Level FlightAware
12:08AM -9.8630 -48.4070 354° North 454 522 36,000  Level FlightAware
12:08AM -9.7920 -48.4150 354° North 454 522 36,000  Level FlightAware
12:09AM -9.7210 -48.4220 354° North 454 522 36,000  Level FlightAware
12:09AM -10.5540 -48.3330 174° South 36,000  Level FlightAware
12:12AM -10.3384 -48.3364 359° North  Level Estimated
12:12AM -9.2270 -48.3730 359° North 36,000  Level FlightAware
12:13AM -10.2341 -48.3381 359° North  Level Estimated
12:13AM -9.0640 -48.3750 359° North 465 535 36,000  Level FlightAware
12:13AM -8.9780 -48.3760 359° North 464 534 36,000  Level FlightAware
12:14AM -8.8810 -48.3770 359° North 464 534 36,000  Level FlightAware
12:15AM -8.7950 -48.3790 359° North 464 534 36,000  Level FlightAware
12:16AM -8.7140 -48.3800 359° North 464 534 36,000  Level FlightAware
12:16AM -8.6130 -48.3810 359° North 464 534 36,000  Level FlightAware
12:17AM -8.4970 -48.3830 359° North 465 535 36,000  Level FlightAware
12:18AM -8.4160 -48.3840 359° North 466 536 36,000  Level FlightAware
12:19AM -8.3180 -48.3850 359° North 466 536 36,000  Level FlightAware
12:19AM -8.2190 -48.3860 359° North 466 536 36,000  Level FlightAware
12:20AM -8.1370 -48.3880 359° North 467 537 36,000  Level FlightAware
12:21AM -8.0640 -48.3890 359° North 467 537 36,000  Level FlightAware
12:21AM -7.9900 -48.3900 359° North 467 537 36,000  Level FlightAware
12:22AM -7.9170 -48.3910 359° North 467 537 36,000  Level FlightAware
12:23AM -7.8440 -48.3930 358° North 467 537 36,000  Level FlightAware
12:24AM -7.7520 -48.3940 359° North 467 537 36,000  Level FlightAware
12:24AM -7.6780 -48.3960 358° North 467 537 36,000  Level FlightAware
12:25AM -7.6050 -48.3970 359° North 467 537 36,000  Level FlightAware
12:26AM -7.5310 -48.3980 359° North 467 537 36,000  Level FlightAware
12:26AM -7.4580 -48.4000 358° North 467 537 36,000  Level FlightAware
12:27AM -7.3660 -48.4010 359° North 467 537 36,000  Level FlightAware
12:28AM -7.2930 -48.4030 358° North 467 537 36,000  Level FlightAware
12:28AM -7.2190 -48.4040 359° North 467 537 36,000  Level FlightAware
12:29AM -7.1460 -48.4050 359° North 467 537 36,000  Level FlightAware
12:32AM -6.8870 -48.4082 359° North  Level Estimated
12:33AM -6.7826 -48.4095 359° North  Level Estimated
12:34AM -6.6783 -48.4108 359° North  Level Estimated
12:35AM -6.5740 -48.4121 359° North  Level Estimated
12:36AM -6.4697 -48.4134 359° North  Level Estimated
12:37AM -6.3653 -48.4147 359° North  Level Estimated
12:38AM -6.2610 -48.4160 359° North  Level Estimated
12:39AM -6.1567 -48.4173 359° North  Level Estimated
12:40AM -6.0524 -48.4186 359° North  Level Estimated
12:41AM -5.9481 -48.4199 359° North  Level Estimated
12:42AM -5.8438 -48.4212 359° North  Level Estimated
12:43AM -5.7394 -48.4225 359° North  Level Estimated
12:44AM -5.6351 -48.4238 359° North  Level Estimated
12:45AM -5.5308 -48.4251 359° North  Level Estimated
12:46AM -5.4265 -48.4264 359° North  Level Estimated
12:47AM -5.3222 -48.4277 359° North  Level Estimated
12:48AM -5.2178 -48.4290 359° North  Level Estimated
12:49AM -5.1135 -48.4302 359° North  Level Estimated
12:50AM -5.0092 -48.4315 359° North  Level Estimated
12:51AM -4.9049 -48.4328 359° North  Level Estimated
12:52AM -4.8005 -48.4341 359° North  Level Estimated
12:53AM -4.6962 -48.4354 359° North  Level Estimated
12:54AM -4.5919 -48.4367 359° North  Level Estimated
12:55AM -4.4876 -48.4380 359° North  Level Estimated
12:56AM -4.3833 -48.4393 359° North  Level Estimated
12:57AM -4.2790 -48.4406 359° North  Level Estimated
12:58AM -4.1746 -48.4419 359° North  Level Estimated
12:59AM -4.0703 -48.4431 359° North  Level Estimated
01:00AM -3.9660 -48.4444 359° North  Level Estimated
01:01AM -3.8617 -48.4457 359° North  Level Estimated
01:02AM -3.7573 -48.4470 359° North  Level Estimated
01:03AM -3.6530 -48.4483 359° North  Level Estimated
01:04AM -3.5487 -48.4496 359° North  Level Estimated
01:05AM -3.4444 -48.4509 359° North  Level Estimated
01:06AM -3.3401 -48.4522 359° North  Level Estimated
01:07AM -3.2357 -48.4535 359° North  Level Estimated
01:08AM -3.1314 -48.4547 359° North  Level Estimated
01:09AM -3.0271 -48.4560 359° North  Level Estimated
01:10AM -2.9228 -48.4573 359° North  Level Estimated
01:11AM -2.8185 -48.4586 359° North  Level Estimated
01:12AM -2.7141 -48.4599 359° North  Level Estimated
01:13AM -2.6098 -48.4612 359° North  Level Estimated
01:14AM -2.5055 -48.4624 359° North  Level Estimated
01:15AM -2.4012 -48.4637 359° North  Level Estimated
01:16AM -2.2969 -48.4650 359° North  Level Estimated
01:17AM -2.1925 -48.4663 359° North  Level Estimated
01:18AM -2.0882 -48.4676 359° North  Level Estimated
01:19AM -1.9839 -48.4688 359° North  Level Estimated
01:20AM -1.8796 -48.4701 359° North  Level Estimated
01:21AM -1.7753 -48.4714 359° North  Level Estimated
01:22AM -1.6710 -48.4727 359° North  Level Estimated
01:23AM -1.5666 -48.4740 359° North  Level Estimated
01:24AM -1.4623 -48.4753 359° North  Level Estimated